sensor_id;sensor_type;location;lat;lon;timestamp;pressure;altitude;pressure_sealevel;temperature;humidity
54407;BME280;40313;50.308;30.374;2023-03-19T00:00:46;100495.78;;;0.30;100.00
54407;BME280;40313;50.308;30.374;2023-03-19T00:03:12;100488.06;;;0.31;100.00
54407;BME280;40313;50.308;30.374;2023-03-19T00:05:40;100489.78;;;0.32;100.00
54407;BME280;40313;50.308;30.374;2023-03-19T00:08:06;100488.09;;;0.36;100.00
54407;BME280;40313;50.308;30.374;2023-03-19T00:10:37;100481.25;;;0.37;100.00
54407;BME280;40313;50.308;30.374;2023-03-19T00:13:03;100477.81;;;0.38;100.00
54407;BME280;40313;50.308;30.374;2023-03-19T00:15:30;100476.97;;;0.40;100.00
54407;BME280;40313;50.308;30.374;2023-03-19T00:17:56;100477.81;;;0.42;100.00
54407;BME280;40313;50.308;30.374;2023-03-19T00:20:23;100474.38;;;0.45;100.00
54407;BME280;40313;50.308;30.374;2023-03-19T00:22:51;100469.25;;;0.46;100.00
54407;BME280;40313;50.308;30.374;2023-03-19T00:25:17;100464.97;;;0.48;100.00
54407;BME280;40313;50.308;30.374;2023-03-19T00:27:44;100468.38;;;0.50;100.00
54407;BME280;40313;50.308;30.374;2023-03-19T00:30:11;100458.13;;;0.50;100.00
54407;BME280;40313;50.308;30.374;2023-03-19T00:32:39;100448.69;;;0.51;100.00
54407;BME280;40313;50.308;30.374;2023-03-19T00:35:07;100452.13;;;0.51;100.00
54407;BME280;40313;50.308;30.374;2023-03-19T00:37:33;100456.41;;;0.51;100.00
54407;BME280;40313;50.308;30.374;2023-03-19T00:40:02;100454.69;;;0.48;100.00
54407;BME280;40313;50.308;30.374;2023-03-19T00:42:29;100459.81;;;0.48;100.00
54407;BME280;40313;50.308;30.374;2023-03-19T00:44:56;100456.44;;;0.43;100.00
54407;BME280;40313;50.308;30.374;2023-03-19T00:47:23;100449.56;;;0.42;100.00
54407;BME280;40313;50.308;30.374;2023-03-19T00:49:50;100452.16;;;0.41;100.00
54407;BME280;40313;50.308;30.374;2023-03-19T00:52:16;100443.59;;;0.37;100.00
54407;BME280;40313;50.308;30.374;2023-03-19T00:54:43;100435.06;;;0.30;100.00
54407;BME280;40313;50.308;30.374;2023-03-19T00:57:11;100443.63;;;0.12;100.00
54407;BME280;40313;50.308;30.374;2023-03-19T00:59:37;100435.94;;;-0.09;100.00
54407;BME280;40313;50.308;30.374;2023-03-19T01:02:04;100431.63;;;-0.27;100.00
54407;BME280;40313;50.308;30.374;2023-03-19T01:04:31;100443.59;;;-0.43;100.00
54407;BME280;40313;50.308;30.374;2023-03-19T01:06:57;100446.94;;;-0.64;100.00
54407;BME280;40313;50.308;30.374;2023-03-19T01:09:24;100443.50;;;-0.82;100.00
54407;BME280;40313;50.308;30.374;2023-03-19T01:11:51;100445.97;;;-0.99;100.00
54407;BME280;40313;50.308;30.374;2023-03-19T01:14:19;100445.09;;;-1.10;100.00
54407;BME280;40313;50.308;30.374;2023-03-19T01:16:45;100443.31;;;-1.24;100.00
54407;BME280;40313;50.308;30.374;2023-03-19T01:19:12;100445.84;;;-1.33;100.00
54407;BME280;40313;50.308;30.374;2023-03-19T01:21:40;100449.16;;;-1.46;100.00
54407;BME280;40313;50.308;30.374;2023-03-19T01:24:10;100440.56;;;-1.62;100.00
54407;BME280;40313;50.308;30.374;2023-03-19T01:26:36;100431.91;;;-1.83;100.00
54407;BME280;40313;50.308;30.374;2023-03-19T01:29:03;100443.75;;;-1.91;100.00
54407;BME280;40313;50.308;30.374;2023-03-19T01:31:31;100438.53;;;-2.05;100.00
54407;BME280;40313;50.308;30.374;2023-03-19T01:33:57;100445.25;;;-2.16;100.00
54407;BME280;40313;50.308;30.374;2023-03-19T01:36:24;100440.88;;;-2.30;100.00
54407;BME280;40313;50.308;30.374;2023-03-19T01:38:50;100435.66;;;-2.42;100.00
54407;BME280;40313;50.308;30.374;2023-03-19T01:41:17;100440.69;;;-2.51;100.00
54407;BME280;40313;50.308;30.374;2023-03-19T01:43:43;100441.41;;;-2.62;100.00
54407;BME280;40313;50.308;30.374;2023-03-19T01:46:15;100443.06;;;-2.70;100.00
54407;BME280;40313;50.308;30.374;2023-03-19T01:48:47;100444.66;;;-2.78;100.00
54407;BME280;40313;50.308;30.374;2023-03-19T01:51:18;100452.25;;;-2.86;100.00
54407;BME280;40313;50.308;30.374;2023-03-19T01:53:50;100442.78;;;-2.93;100.00
54407;BME280;40313;50.308;30.374;2023-03-19T01:56:20;100443.59;;;-2.97;100.00
54407;BME280;40313;50.308;30.374;2023-03-19T01:58:49;100444.41;;;-3.01;100.00
54407;BME280;40313;50.308;30.374;2023-03-19T02:01:17;100447.78;;;-3.01;100.00
54407;BME280;40313;50.308;30.374;2023-03-19T02:03:46;100444.38;;;-3.04;100.00
54407;BME280;40313;50.308;30.374;2023-03-19T02:06:16;100452.81;;;-3.10;100.00
54407;BME280;40313;50.308;30.374;2023-03-19T02:08:45;100450.16;;;-3.16;100.00
54407;BME280;40313;50.308;30.374;2023-03-19T02:11:12;100447.59;;;-3.18;100.00
54407;BME280;40313;50.308;30.374;2023-03-19T02:13:40;100454.44;;;-3.15;100.00
54407;BME280;40313;50.308;30.374;2023-03-19T02:16:07;100454.47;;;-3.12;100.00
54407;BME280;40313;50.308;30.374;2023-03-19T02:18:34;100449.31;;;-3.15;100.00
54407;BME280;40313;50.308;30.374;2023-03-19T02:21:06;100453.50;;;-3.20;100.00
54407;BME280;40313;50.308;30.374;2023-03-19T02:23:36;100456.81;;;-3.26;100.00
54407;BME280;40313;50.308;30.374;2023-03-19T02:26:09;100463.56;;;-3.33;100.00
54407;BME280;40313;50.308;30.374;2023-03-19T02:28:39;100463.47;;;-3.39;100.00
54407;BME280;40313;50.308;30.374;2023-03-19T02:31:06;100464.34;;;-3.37;100.00
54407;BME280;40313;50.308;30.374;2023-03-19T02:33:33;100466.06;;;-3.36;100.00
54407;BME280;40313;50.308;30.374;2023-03-19T02:36:01;100464.38;;;-3.34;100.00
54407;BME280;40313;50.308;30.374;2023-03-19T02:38:29;100468.66;;;-3.34;100.00
54407;BME280;40313;50.308;30.374;2023-03-19T02:41:00;100469.44;;;-3.38;100.00
54407;BME280;40313;50.308;30.374;2023-03-19T02:43:29;100471.94;;;-3.43;100.00
54407;BME280;40313;50.308;30.374;2023-03-19T02:45:56;100473.56;;;-3.47;100.00
54407;BME280;40313;50.308;30.374;2023-03-19T02:48:24;100469.28;;;-3.49;100.00
54407;BME280;40313;50.308;30.374;2023-03-19T02:50:50;100473.53;;;-3.50;100.00
54407;BME280;40313;50.308;30.374;2023-03-19T02:53:17;100476.06;;;-3.50;100.00
54407;BME280;40313;50.308;30.374;2023-03-19T02:55:43;100480.38;;;-3.47;100.00
54407;BME280;40313;50.308;30.374;2023-03-19T02:58:10;100474.53;;;-3.38;100.00
54407;BME280;40313;50.308;30.374;2023-03-19T03:00:39;100474.66;;;-3.27;100.00
54407;BME280;40313;50.308;30.374;2023-03-19T03:03:06;100474.81;;;-3.18;100.00
54407;BME280;40313;50.308;30.374;2023-03-19T03:05:33;100474.13;;;-3.03;100.00
54407;BME280;40313;50.308;30.374;2023-03-19T03:08:01;100478.56;;;-2.91;100.00
54407;BME280;40313;50.308;30.374;2023-03-19T03:10:28;100485.50;;;-2.78;100.00
54407;BME280;40313;50.308;30.374;2023-03-19T03:12:55;100488.22;;;-2.66;100.00
54407;BME280;40313;50.308;30.374;2023-03-19T03:15:21;100489.22;;;-2.53;100.00
54407;BME280;40313;50.308;30.374;2023-03-19T03:17:49;100488.50;;;-2.38;100.00
54407;BME280;40313;50.308;30.374;2023-03-19T03:20:16;100488.63;;;-2.26;100.00
54407;BME280;40313;50.308;30.374;2023-03-19T03:22:44;100487.06;;;-2.13;100.00
54407;BME280;40313;50.308;30.374;2023-03-19T03:25:11;100484.56;;;-2.02;100.00
54407;BME280;40313;50.308;30.374;2023-03-19T03:27:38;100477.84;;;-1.92;100.00
54407;BME280;40313;50.308;30.374;2023-03-19T03:30:06;100485.59;;;-1.83;100.00
54407;BME280;40313;50.308;30.374;2023-03-19T03:32:35;100486.50;;;-1.76;100.00
54407;BME280;40313;50.308;30.374;2023-03-19T03:35:04;100486.56;;;-1.70;100.00
54407;BME280;40313;50.308;30.374;2023-03-19T03:37:32;100481.47;;;-1.65;100.00
54407;BME280;40313;50.308;30.374;2023-03-19T03:39:59;100484.06;;;-1.58;100.00
54407;BME280;40313;50.308;30.374;2023-03-19T03:42:30;100478.13;;;-1.52;100.00
54407;BME280;40313;50.308;30.374;2023-03-19T03:44:57;100486.72;;;-1.45;100.00
54407;BME280;40313;50.308;30.374;2023-03-19T03:47:23;100489.31;;;-1.39;100.00
54407;BME280;40313;50.308;30.374;2023-03-19T03:49:50;100475.69;;;-1.32;100.00
54407;BME280;40313;50.308;30.374;2023-03-19T03:52:18;100470.59;;;-1.27;100.00
54407;BME280;40313;50.308;30.374;2023-03-19T03:54:44;100476.63;;;-1.22;100.00
54407;BME280;40313;50.308;30.374;2023-03-19T03:57:11;100486.03;;;-1.15;100.00
54407;BME280;40313;50.308;30.374;2023-03-19T03:59:37;100486.06;;;-1.10;100.00
54407;BME280;40313;50.308;30.374;2023-03-19T04:02:04;100482.66;;;-1.05;100.00
54407;BME280;40313;50.308;30.374;2023-03-19T04:04:31;100479.28;;;-1.00;100.00
54407;BME280;40313;50.308;30.374;2023-03-19T04:06:58;100482.72;;;-0.95;100.00
54407;BME280;40313;50.308;30.374;2023-03-19T04:09:26;100473.34;;;-0.92;100.00
54407;BME280;40313;50.308;30.374;2023-03-19T04:11:52;100478.50;;;-0.85;100.00
54407;BME280;40313;50.308;30.374;2023-03-19T04:14:19;100475.94;;;-0.79;100.00
54407;BME280;40313;50.308;30.374;2023-03-19T04:16:45;100481.97;;;-0.74;100.00
54407;BME280;40313;50.308;30.374;2023-03-19T04:19:12;100473.44;;;-0.68;100.00
54407;BME280;40313;50.308;30.374;2023-03-19T04:21:38;100464.91;;;-0.63;100.00
54407;BME280;40313;50.308;30.374;2023-03-19T04:24:05;100468.31;;;-0.58;100.00
54407;BME280;40313;50.308;30.374;2023-03-19T04:26:35;100464.94;;;-0.50;100.00
54407;BME280;40313;50.308;30.374;2023-03-19T04:29:02;100464.09;;;-0.45;100.00
54407;BME280;40313;50.308;30.374;2023-03-19T04:31:28;100465.81;;;-0.39;100.00
54407;BME280;40313;50.308;30.374;2023-03-19T04:33:55;100464.97;;;-0.32;100.00
54407;BME280;40313;50.308;30.374;2023-03-19T04:36:22;100464.13;;;-0.26;100.00
54407;BME280;40313;50.308;30.374;2023-03-19T04:38:48;100467.56;;;-0.18;100.00
54407;BME280;40313;50.308;30.374;2023-03-19T04:41:15;100459.84;;;-0.12;100.00
54407;BME280;40313;50.308;30.374;2023-03-19T04:43:43;100464.13;;;-0.05;100.00
54407;BME280;40313;50.308;30.374;2023-03-19T04:46:09;100462.44;;;0.01;100.00
54407;BME280;40313;50.308;30.374;2023-03-19T04:48:36;100459.03;;;0.06;100.00
54407;BME280;40313;50.308;30.374;2023-03-19T04:51:04;100464.13;;;0.14;100.00
54407;BME280;40313;50.308;30.374;2023-03-19T04:53:33;100467.56;;;0.22;100.00
54407;BME280;40313;50.308;30.374;2023-03-19T04:56:00;100471.00;;;0.26;100.00
54407;BME280;40313;50.308;30.374;2023-03-19T04:58:26;100468.41;;;0.33;100.00
54407;BME280;40313;50.308;30.374;2023-03-19T05:00:54;100469.25;;;0.42;100.00
54407;BME280;40313;50.308;30.374;2023-03-19T05:03:21;100476.09;;;0.49;100.00
54407;BME280;40313;50.308;30.374;2023-03-19T05:05:47;100474.34;;;0.56;100.00
54407;BME280;40313;50.308;30.374;2023-03-19T05:08:14;100467.50;;;0.62;100.00
54407;BME280;40313;50.308;30.374;2023-03-19T05:10:40;100468.34;;;0.69;100.00
54407;BME280;40313;50.308;30.374;2023-03-19T05:13:07;100460.66;;;0.71;100.00
54407;BME280;40313;50.308;30.374;2023-03-19T05:15:33;100460.59;;;0.81;100.00
54407;BME280;40313;50.308;30.374;2023-03-19T05:18:01;100470.00;;;0.89;100.00
54407;BME280;40313;50.308;30.374;2023-03-19T05:20:28;100470.00;;;0.95;100.00
54407;BME280;40313;50.308;30.374;2023-03-19T05:22:55;100462.25;;;1.01;100.00
54407;BME280;40313;50.308;30.374;2023-03-19T05:25:21;100469.94;;;1.10;100.00
54407;BME280;40313;50.308;30.374;2023-03-19T05:27:48;100471.63;;;1.19;100.00
54407;BME280;40313;50.308;30.374;2023-03-19T05:30:14;100475.00;;;1.29;100.00
54407;BME280;40313;50.308;30.374;2023-03-19T05:32:42;100463.81;;;1.36;100.00
54407;BME280;40313;50.308;30.374;2023-03-19T05:35:12;100463.72;;;1.48;100.00
54407;BME280;40313;50.308;30.374;2023-03-19T05:37:39;100461.97;;;1.58;100.00
54407;BME280;40313;50.308;30.374;2023-03-19T05:40:06;100461.06;;;1.67;100.00
54407;BME280;40313;50.308;30.374;2023-03-19T05:42:33;100451.53;;;1.78;100.00
54407;BME280;40313;50.308;30.374;2023-03-19T05:44:59;100457.47;;;1.89;100.00
54407;BME280;40313;50.308;30.374;2023-03-19T05:47:26;100452.25;;;2.00;100.00
54407;BME280;40313;50.308;30.374;2023-03-19T05:49:53;100450.41;;;2.15;100.00
54407;BME280;40313;50.308;30.374;2023-03-19T05:52:21;100450.28;;;2.29;100.00
54407;BME280;40313;50.308;30.374;2023-03-19T05:54:47;100453.56;;;2.46;100.00
54407;BME280;40313;50.308;30.374;2023-03-19T05:57:15;100441.41;;;2.61;100.00
54407;BME280;40313;50.308;30.374;2023-03-19T05:59:42;100443.75;;;2.81;100.00
54407;BME280;40313;50.308;30.374;2023-03-19T06:02:09;100437.53;;;2.99;100.00
54407;BME280;40313;50.308;30.374;2023-03-19T06:04:35;100438.97;;;3.20;100.00
54407;BME280;40313;50.308;30.374;2023-03-19T06:07:02;100438.78;;;3.34;100.00
54407;BME280;40313;50.308;30.374;2023-03-19T06:09:30;100435.25;;;3.41;100.00
54407;BME280;40313;50.308;30.374;2023-03-19T06:11:57;100431.84;;;3.39;100.00
54407;BME280;40313;50.308;30.374;2023-03-19T06:14:23;100441.06;;;3.55;100.00
54407;BME280;40313;50.308;30.374;2023-03-19T06:16:50;100436.44;;;3.77;100.00
54407;BME280;40313;50.308;30.374;2023-03-19T06:19:17;100436.19;;;3.94;100.00
54407;BME280;40313;50.308;30.374;2023-03-19T06:21:44;100440.22;;;4.09;100.00
54407;BME280;40313;50.308;30.374;2023-03-19T06:24:10;100437.34;;;4.28;100.00
54407;BME280;40313;50.308;30.374;2023-03-19T06:26:38;100436.06;;;4.50;100.00
54407;BME280;40313;50.308;30.374;2023-03-19T06:29:05;100437.50;;;4.65;100.00
54407;BME280;40313;50.308;30.374;2023-03-19T06:31:31;100438.09;;;4.80;100.00
54407;BME280;40313;50.308;30.374;2023-03-19T06:33:58;100441.22;;;4.97;100.00
54407;BME280;40313;50.308;30.374;2023-03-19T06:36:25;100442.50;;;5.17;100.00
54407;BME280;40313;50.308;30.374;2023-03-19T06:38:51;100438.78;;;5.30;100.00
54407;BME280;40313;50.308;30.374;2023-03-19T06:41:18;100434.44;;;5.32;100.00
54407;BME280;40313;50.308;30.374;2023-03-19T06:43:46;100441.94;;;5.45;100.00
54407;BME280;40313;50.308;30.374;2023-03-19T06:46:13;100445.00;;;5.23;100.00
54407;BME280;40313;50.308;30.374;2023-03-19T06:48:40;100442.13;;;5.35;100.00
54407;BME280;40313;50.308;30.374;2023-03-19T06:51:06;100440.16;;;5.47;100.00
54407;BME280;40313;50.308;30.374;2023-03-19T06:53:33;100439.44;;;5.40;100.00
54407;BME280;40313;50.308;30.374;2023-03-19T06:56:00;100438.03;;;5.64;100.00
54407;BME280;40313;50.308;30.374;2023-03-19T06:58:26;100439.44;;;5.78;100.00
54407;BME280;40313;50.308;30.374;2023-03-19T07:00:54;100439.84;;;5.98;100.00
54407;BME280;40313;50.308;30.374;2023-03-19T07:03:21;100440.38;;;6.11;100.00
54407;BME280;40313;50.308;30.374;2023-03-19T07:05:49;100441.50;;;6.01;100.00
54407;BME280;40313;50.308;30.374;2023-03-19T07:08:15;100437.16;;;6.01;100.00
54407;BME280;40313;50.308;30.374;2023-03-19T07:10:42;100436.00;;;5.79;100.00
54407;BME280;40313;50.308;30.374;2023-03-19T07:13:09;100438.78;;;5.69;100.00
54407;BME280;40313;50.308;30.374;2023-03-19T07:15:35;100433.59;;;5.32;100.00
54407;BME280;40313;50.308;30.374;2023-03-19T07:18:03;100438.03;;;4.84;100.00
54407;BME280;40313;50.308;30.374;2023-03-19T07:20:30;100439.63;;;4.90;100.00
54407;BME280;40313;50.308;30.374;2023-03-19T07:22:57;100445.84;;;4.80;100.00
54407;BME280;40313;50.308;30.374;2023-03-19T07:25:23;100445.00;;;4.79;100.00
54407;BME280;40313;50.308;30.374;2023-03-19T07:27:50;100450.03;;;4.85;100.00
54407;BME280;40313;50.308;30.374;2023-03-19T07:30:17;100443.03;;;4.92;100.00
54407;BME280;40313;50.308;30.374;2023-03-19T07:32:43;100451.72;;;4.88;100.00
54407;BME280;40313;50.308;30.374;2023-03-19T07:35:11;100446.47;;;4.91;100.00
54407;BME280;40313;50.308;30.374;2023-03-19T07:37:38;100437.09;;;4.87;100.00
54407;BME280;40313;50.308;30.374;2023-03-19T07:40:06;100453.75;;;5.16;100.00
54407;BME280;40313;50.308;30.374;2023-03-19T07:42:32;100445.53;;;5.38;100.00
54407;BME280;40313;50.308;30.374;2023-03-19T07:45:00;100448.03;;;5.80;100.00
54407;BME280;40313;50.308;30.374;2023-03-19T07:47:28;100449.84;;;6.14;100.00
54407;BME280;40313;50.308;30.374;2023-03-19T07:49:55;100444.06;;;6.37;100.00
54407;BME280;40313;50.308;30.374;2023-03-19T07:52:23;100447.50;;;6.70;100.00
54407;BME280;40313;50.308;30.374;2023-03-19T07:54:50;100445.47;;;6.82;100.00
54407;BME280;40313;50.308;30.374;2023-03-19T07:57:16;100444.97;;;7.00;100.00
54407;BME280;40313;50.308;30.374;2023-03-19T07:59:43;100440.66;;;7.29;100.00
54407;BME280;40313;50.308;30.374;2023-03-19T08:02:11;100440.38;;;7.67;100.00
54407;BME280;40313;50.308;30.374;2023-03-19T08:04:38;100435.09;;;7.96;100.00
54407;BME280;40313;50.308;30.374;2023-03-19T08:07:06;100430.06;;;8.17;100.00
54407;BME280;40313;50.308;30.374;2023-03-19T08:09:36;100433.91;;;8.32;100.00
54407;BME280;40313;50.308;30.374;2023-03-19T08:12:03;100437.16;;;8.39;100.00
54407;BME280;40313;50.308;30.374;2023-03-19T08:14:30;100430.00;;;8.45;100.00
54407;BME280;40313;50.308;30.374;2023-03-19T08:16:57;100435.81;;;8.54;100.00
54407;BME280;40313;50.308;30.374;2023-03-19T08:19:23;100431.06;;;8.65;100.00
54407;BME280;40313;50.308;30.374;2023-03-19T08:21:50;100426.34;;;8.76;100.00
54407;BME280;40313;50.308;30.374;2023-03-19T08:24:16;100430.53;;;8.55;100.00
54407;BME280;40313;50.308;30.374;2023-03-19T08:26:45;100422.34;;;8.41;100.00
54407;BME280;40313;50.308;30.374;2023-03-19T08:29:11;100430.50;;;8.30;100.00
54407;BME280;40313;50.308;30.374;2023-03-19T08:31:38;100429.13;;;8.20;100.00
54407;BME280;40313;50.308;30.374;2023-03-19T08:34:04;100418.84;;;8.17;100.00
54407;BME280;40313;50.308;30.374;2023-03-19T08:36:34;100418.94;;;7.87;100.00
54407;BME280;40313;50.308;30.374;2023-03-19T08:39:01;100420.78;;;7.28;100.00
54407;BME280;40313;50.308;30.374;2023-03-19T08:41:28;100418.50;;;7.17;100.00
54407;BME280;40313;50.308;30.374;2023-03-19T08:43:56;100420.97;;;7.22;100.00
54407;BME280;40313;50.308;30.374;2023-03-19T08:46:23;100412.81;;;7.04;100.00
54407;BME280;40313;50.308;30.374;2023-03-19T08:48:51;100411.56;;;6.88;100.00
54407;BME280;40313;50.308;30.374;2023-03-19T08:51:17;100414.16;;;6.88;100.00
54407;BME280;40313;50.308;30.374;2023-03-19T08:53:44;100414.63;;;7.02;100.00
54407;BME280;40313;50.308;30.374;2023-03-19T08:56:10;100413.97;;;6.94;100.00
54407;BME280;40313;50.308;30.374;2023-03-19T08:58:37;100401.84;;;6.96;100.00
54407;BME280;40313;50.308;30.374;2023-03-19T09:01:08;100406.94;;;6.99;100.00
54407;BME280;40313;50.308;30.374;2023-03-19T09:03:35;100401.09;;;7.21;100.00
54407;BME280;40313;50.308;30.374;2023-03-19T09:06:03;100398.56;;;7.19;100.00
54407;BME280;40313;50.308;30.374;2023-03-19T09:08:30;100387.94;;;6.97;100.00
54407;BME280;40313;50.308;30.374;2023-03-19T09:10:57;100396.91;;;6.87;100.00
54407;BME280;40313;50.308;30.374;2023-03-19T09:13:24;100395.34;;;6.81;100.00
54407;BME280;40313;50.308;30.374;2023-03-19T09:15:51;100386.16;;;6.69;100.00
54407;BME280;40313;50.308;30.374;2023-03-19T09:18:19;100384.31;;;6.74;100.00
54407;BME280;40313;50.308;30.374;2023-03-19T09:20:48;100382.31;;;6.83;100.00
54407;BME280;40313;50.308;30.374;2023-03-19T09:23:15;100385.09;;;6.77;100.00
54407;BME280;40313;50.308;30.374;2023-03-19T09:25:42;100373.88;;;6.76;100.00
54407;BME280;40313;50.308;30.374;2023-03-19T09:28:08;100371.69;;;6.62;100.00
54407;BME280;40313;50.308;30.374;2023-03-19T09:30:35;100365.66;;;6.62;100.00
54407;BME280;40313;50.308;30.374;2023-03-19T09:33:03;100360.47;;;6.60;100.00
54407;BME280;40313;50.308;30.374;2023-03-19T09:35:32;100360.63;;;6.55;100.00
54407;BME280;40313;50.308;30.374;2023-03-19T09:37:59;100356.38;;;6.53;100.00
54407;BME280;40313;50.308;30.374;2023-03-19T09:40:28;100360.81;;;6.49;100.00
54407;BME280;40313;50.308;30.374;2023-03-19T09:43:02;100368.53;;;6.51;100.00
54407;BME280;40313;50.308;30.374;2023-03-19T09:45:31;100365.84;;;6.54;100.00
54407;BME280;40313;50.308;30.374;2023-03-19T09:48:03;100364.91;;;6.56;100.00
54407;BME280;40313;50.308;30.374;2023-03-19T09:50:32;100361.41;;;6.59;100.00
54407;BME280;40313;50.308;30.374;2023-03-19T09:53:03;100366.59;;;6.59;100.00
54407;BME280;40313;50.308;30.374;2023-03-19T09:55:39;100373.09;;;6.72;100.00
54407;BME280;40313;50.308;30.374;2023-03-19T09:58:12;100352.59;;;6.95;100.00
54407;BME280;40313;50.308;30.374;2023-03-19T10:00:40;100346.09;;;7.09;100.00
54407;BME280;40313;50.308;30.374;2023-03-19T10:03:21;100336.69;;;7.05;100.00
54407;BME280;40313;50.308;30.374;2023-03-19T10:06:01;100346.44;;;6.97;100.00
54407;BME280;40313;50.308;30.374;2023-03-19T10:08:43;100346.75;;;6.88;100.00
54407;BME280;40313;50.308;30.374;2023-03-19T10:11:30;100347.19;;;6.72;100.00
54407;BME280;40313;50.308;30.374;2023-03-19T10:14:11;100331.03;;;6.63;100.00
54407;BME280;40313;50.308;30.374;2023-03-19T10:16:44;100321.78;;;6.54;100.00
54407;BME280;40313;50.308;30.374;2023-03-19T10:19:17;100322.91;;;6.45;100.00
54407;BME280;40313;50.308;30.374;2023-03-19T10:21:51;100322.22;;;6.38;100.00
54407;BME280;40313;50.308;30.374;2023-03-19T10:24:21;100314.47;;;6.37;100.00
54407;BME280;40313;50.308;30.374;2023-03-19T10:26:49;100319.81;;;6.32;100.00
54407;BME280;40313;50.308;30.374;2023-03-19T10:29:21;100308.78;;;6.24;100.00
54407;BME280;40313;50.308;30.374;2023-03-19T10:31:51;100300.38;;;6.17;100.00
54407;BME280;40313;50.308;30.374;2023-03-19T10:34:27;100294.44;;;6.12;100.00
54407;BME280;40313;50.308;30.374;2023-03-19T10:37:00;100292.69;;;6.13;100.00
54407;BME280;40313;50.308;30.374;2023-03-19T10:39:29;100291.81;;;6.14;100.00
54407;BME280;40313;50.308;30.374;2023-03-19T10:42:02;100286.53;;;6.17;100.00
54407;BME280;40313;50.308;30.374;2023-03-19T10:44:34;100276.78;;;6.27;100.00
54407;BME280;40313;50.308;30.374;2023-03-19T10:47:09;100282.53;;;6.36;100.00
54407;BME280;40313;50.308;30.374;2023-03-19T10:49:36;100283.34;;;6.38;100.00
54407;BME280;40313;50.308;30.374;2023-03-19T10:52:04;100273.78;;;6.40;100.00
54407;BME280;40313;50.308;30.374;2023-03-19T10:54:31;100277.19;;;6.43;100.00
54407;BME280;40313;50.308;30.374;2023-03-19T10:56:59;100273.78;;;6.40;100.00
54407;BME280;40313;50.308;30.374;2023-03-19T10:59:30;100274.53;;;6.44;100.00
54407;BME280;40313;50.308;30.374;2023-03-19T11:02:01;100264.19;;;6.44;100.00
54407;BME280;40313;50.308;30.374;2023-03-19T11:04:28;100268.34;;;6.50;100.00
54407;BME280;40313;50.308;30.374;2023-03-19T11:07:00;100257.91;;;6.51;100.00
54407;BME280;40313;50.308;30.374;2023-03-19T11:09:33;100264.00;;;6.50;100.00
54407;BME280;40313;50.308;30.374;2023-03-19T11:12:05;100262.13;;;6.55;100.00
54407;BME280;40313;50.308;30.374;2023-03-19T11:14:34;100257.81;;;6.56;100.00
54407;BME280;40313;50.308;30.374;2023-03-19T11:17:02;100243.94;;;6.57;100.00
54407;BME280;40313;50.308;30.374;2023-03-19T11:19:31;100244.91;;;6.53;100.00
54407;BME280;40313;50.308;30.374;2023-03-19T11:22:01;100247.44;;;6.56;100.00
54407;BME280;40313;50.308;30.374;2023-03-19T11:24:32;100244.78;;;6.57;100.00
54407;BME280;40313;50.308;30.374;2023-03-19T11:27:01;100245.63;;;6.58;100.00
54407;BME280;40313;50.308;30.374;2023-03-19T11:29:28;100249.22;;;6.54;100.00
54407;BME280;40313;50.308;30.374;2023-03-19T11:32:03;100247.44;;;6.56;100.00
54407;BME280;40313;50.308;30.374;2023-03-19T11:34:34;100236.03;;;6.62;100.00
54407;BME280;40313;50.308;30.374;2023-03-19T11:37:10;100243.75;;;6.63;100.00
54407;BME280;40313;50.308;30.374;2023-03-19T11:39:50;100228.09;;;6.66;100.00
54407;BME280;40313;50.308;30.374;2023-03-19T11:42:40;100231.59;;;6.65;100.00
54407;BME280;40313;50.308;30.374;2023-03-19T11:45:17;100234.91;;;6.70;100.00
54407;BME280;40313;50.308;30.374;2023-03-19T11:47:57;100233.81;;;6.78;100.00
54407;BME280;40313;50.308;30.374;2023-03-19T11:50:29;100229.22;;;6.86;100.00
54407;BME280;40313;50.308;30.374;2023-03-19T11:53:06;100224.03;;;6.86;100.00
54407;BME280;40313;50.308;30.374;2023-03-19T11:55:40;100216.34;;;6.83;100.00
54407;BME280;40313;50.308;30.374;2023-03-19T12:00:50;100206.75;;;6.86;100.00
54407;BME280;40313;50.308;30.374;2023-03-19T12:03:52;100208.47;;;6.86;100.00
54407;BME280;40313;50.308;30.374;2023-03-19T12:06:32;100205.78;;;6.89;100.00
54407;BME280;40313;50.308;30.374;2023-03-19T12:09:02;100191.13;;;6.88;100.00
54407;BME280;40313;50.308;30.374;2023-03-19T12:11:37;100192.78;;;6.90;100.00
54407;BME280;40313;50.308;30.374;2023-03-19T12:14:13;100193.50;;;6.94;100.00
54407;BME280;40313;50.308;30.374;2023-03-19T12:16:46;100189.03;;;6.99;100.00
54407;BME280;40313;50.308;30.374;2023-03-19T12:19:25;100192.31;;;7.04;100.00
54407;BME280;40313;50.308;30.374;2023-03-19T12:21:58;100193.81;;;7.12;100.00
54407;BME280;40313;50.308;30.374;2023-03-19T12:24:33;100186.03;;;7.12;100.00
54407;BME280;40313;50.308;30.374;2023-03-19T12:27:12;100182.59;;;7.11;100.00
54407;BME280;40313;50.308;30.374;2023-03-19T12:29:45;100180.03;;;7.09;100.00
54407;BME280;40313;50.308;30.374;2023-03-19T12:32:20;100173.06;;;7.12;100.00
54407;BME280;40313;50.308;30.374;2023-03-19T12:34:52;100166.81;;;7.17;100.00
54407;BME280;40313;50.308;30.374;2023-03-19T12:37:27;100171.22;;;7.15;100.00
54407;BME280;40313;50.308;30.374;2023-03-19T12:40:05;100169.56;;;7.13;100.00
54407;BME280;40313;50.308;30.374;2023-03-19T12:42:38;100168.66;;;7.14;100.00
54407;BME280;40313;50.308;30.374;2023-03-19T12:45:22;100168.44;;;7.20;100.00
54407;BME280;40313;50.308;30.374;2023-03-19T12:47:53;100167.41;;;7.25;100.00